createdAt,value
2018-07-30T00:01:50.723Z,19.20
2018-07-30T00:04:18.899Z,19.10
2018-07-30T00:06:47.078Z,19.10
2018-07-30T00:09:15.250Z,19.00
2018-07-30T00:11:43.419Z,19.00
2018-07-30T00:14:11.951Z,19.10
2018-07-30T00:16:40.067Z,19.10
2018-07-30T00:19:08.238Z,19.20
2018-07-30T00:21:36.385Z,19.20
2018-07-30T00:24:04.578Z,19.20
2018-07-30T00:26:32.730Z,19.10
2018-07-30T00:29:00.910Z,19.00
2018-07-30T00:31:29.108Z,18.90
2018-07-30T00:33:57.250Z,18.90
2018-07-30T00:36:25.394Z,19.00
2018-07-30T00:38:53.550Z,19.00
2018-07-30T00:41:21.725Z,19.00
2018-07-30T00:43:49.877Z,19.00
2018-07-30T00:46:18.055Z,19.00
2018-07-30T00:48:46.198Z,19.00
2018-07-30T00:51:14.357Z,19.00
2018-07-30T00:53:42.534Z,19.00
2018-07-30T00:56:10.686Z,19.00
2018-07-30T00:58:38.858Z,18.90
2018-07-30T01:01:07.130Z,18.90
2018-07-30T01:03:35.305Z,18.90
2018-07-30T01:06:03.454Z,18.90
2018-07-30T01:08:31.611Z,18.90
2018-07-30T01:10:59.798Z,18.80
2018-07-30T01:13:27.958Z,18.80
2018-07-30T01:15:56.114Z,18.70
2018-07-30T01:18:24.279Z,18.70
2018-07-30T01:20:52.482Z,18.70
2018-07-30T01:23:20.656Z,18.70
2018-07-30T01:25:48.799Z,18.80
2018-07-30T01:28:16.986Z,18.80
2018-07-30T01:30:45.148Z,18.90
2018-07-30T01:33:13.294Z,18.90
2018-07-30T01:35:41.466Z,18.80
2018-07-30T01:38:09.611Z,18.70
2018-07-30T01:40:37.778Z,18.60
2018-07-30T01:43:05.966Z,18.60
2018-07-30T01:45:34.125Z,18.60
2018-07-30T01:48:02.297Z,18.60
2018-07-30T01:50:30.466Z,18.50
2018-07-30T01:52:58.614Z,18.50
2018-07-30T01:55:26.806Z,18.50
2018-07-30T01:57:54.926Z,18.60
2018-07-30T02:00:23.061Z,18.60
2018-07-30T02:02:51.225Z,18.70
2018-07-30T02:05:19.369Z,18.70
2018-07-30T02:07:47.536Z,18.70
2018-07-30T02:10:15.686Z,18.60
2018-07-30T02:12:43.846Z,18.30
2018-07-30T02:15:14.753Z,18.10
2018-07-30T02:17:42.937Z,18.00
2018-07-30T02:20:11.073Z,18.00
2018-07-30T02:22:39.226Z,17.90
2018-07-30T02:25:08.070Z,17.90
2018-07-30T02:27:36.214Z,18.00
2018-07-30T02:30:05.538Z,18.00
2018-07-30T02:32:33.680Z,18.10
2018-07-30T02:35:01.830Z,18.10
2018-07-30T02:37:30.001Z,18.20
2018-07-30T02:39:58.177Z,18.20
2018-07-30T02:42:26.330Z,18.30
2018-07-30T02:44:54.479Z,18.40
2018-07-30T02:47:22.642Z,18.40
2018-07-30T02:49:50.795Z,18.40
2018-07-30T02:52:18.951Z,18.40
2018-07-30T02:54:47.098Z,18.40
2018-07-30T02:57:15.259Z,18.50
2018-07-30T02:59:43.398Z,18.50
2018-07-30T03:02:11.561Z,18.50
2018-07-30T03:04:39.713Z,18.50
2018-07-30T03:07:07.866Z,18.60
2018-07-30T03:09:36.023Z,18.50
2018-07-30T03:12:04.198Z,18.60
2018-07-30T03:14:32.331Z,18.60
2018-07-30T03:17:00.485Z,18.60
2018-07-30T03:19:28.665Z,18.60
2018-07-30T03:21:56.839Z,18.60
2018-07-30T03:24:25.195Z,18.50
2018-07-30T03:26:53.357Z,18.40
2018-07-30T03:29:21.518Z,18.20
2018-07-30T03:31:49.709Z,18.10
2018-07-30T03:34:17.979Z,18.10
2018-07-30T03:36:46.157Z,18.10
2018-07-30T03:39:14.324Z,18.00
2018-07-30T03:41:42.478Z,18.00
2018-07-30T03:44:10.646Z,17.80
2018-07-30T03:46:38.821Z,17.70
2018-07-30T03:49:06.978Z,17.60
2018-07-30T03:51:35.217Z,17.60
2018-07-30T03:54:03.374Z,17.60
2018-07-30T03:56:31.548Z,17.60
2018-07-30T03:58:59.698Z,17.60
2018-07-30T04:01:27.849Z,17.50
2018-07-30T04:03:56.037Z,17.50
2018-07-30T04:06:24.221Z,17.50
2018-07-30T04:08:52.422Z,17.60
2018-07-30T04:11:20.575Z,17.60
2018-07-30T04:13:48.737Z,17.70
2018-07-30T04:16:16.950Z,17.90
2018-07-30T04:18:45.104Z,18.30
2018-07-30T04:21:13.362Z,18.70
2018-07-30T04:23:41.534Z,19.10
2018-07-30T04:26:09.686Z,19.30
2018-07-30T04:28:37.872Z,19.40
2018-07-30T04:31:06.049Z,19.30
2018-07-30T04:33:34.212Z,19.10
2018-07-30T04:36:02.357Z,19.00
2018-07-30T04:38:30.530Z,18.90
2018-07-30T04:40:58.739Z,18.80
2018-07-30T04:43:26.829Z,18.70
2018-07-30T04:45:54.992Z,18.70
2018-07-30T04:48:23.137Z,18.70
2018-07-30T04:50:51.290Z,18.70
2018-07-30T04:53:19.452Z,18.80
2018-07-30T04:55:47.599Z,18.70
2018-07-30T04:58:15.777Z,18.80
2018-07-30T05:00:43.923Z,18.80
2018-07-30T05:03:12.081Z,18.80
2018-07-30T05:05:40.261Z,18.80
2018-07-30T05:08:08.429Z,18.80
2018-07-30T05:10:36.582Z,18.70
2018-07-30T05:13:04.738Z,18.80
2018-07-30T05:15:32.907Z,18.80
2018-07-30T05:18:01.048Z,18.90
2018-07-30T05:20:29.188Z,19.00
2018-07-30T05:22:57.370Z,19.00
2018-07-30T05:25:25.579Z,19.10
2018-07-30T05:27:53.742Z,19.10
2018-07-30T05:30:21.945Z,19.10
2018-07-30T05:32:50.109Z,19.10
2018-07-30T05:35:18.267Z,19.20
2018-07-30T05:37:46.448Z,19.30
2018-07-30T05:40:14.651Z,19.40
2018-07-30T05:42:42.913Z,19.40
2018-07-30T05:45:11.037Z,19.50
2018-07-30T05:47:39.223Z,19.70
2018-07-30T05:50:07.390Z,19.80
2018-07-30T05:52:35.517Z,19.90
2018-07-30T05:55:03.729Z,20.00
2018-07-30T05:57:31.894Z,20.10
2018-07-30T06:00:00.065Z,20.20
2018-07-30T06:02:28.205Z,20.30
2018-07-30T06:04:56.361Z,20.40
2018-07-30T06:07:24.529Z,20.50
2018-07-30T06:09:52.705Z,20.50
2018-07-30T06:12:20.855Z,20.60
2018-07-30T06:14:49.046Z,20.60
2018-07-30T06:17:17.209Z,20.70
2018-07-30T06:19:45.374Z,20.80
2018-07-30T06:22:13.578Z,20.80
2018-07-30T06:24:41.734Z,20.90
2018-07-30T06:27:09.934Z,21.00
2018-07-30T06:29:38.087Z,21.10
2018-07-30T06:32:06.286Z,21.10
2018-07-30T06:34:34.442Z,21.20
2018-07-30T06:37:02.604Z,21.30
2018-07-30T06:39:30.754Z,21.30
2018-07-30T06:41:58.931Z,21.40
2018-07-30T06:44:27.107Z,21.50
2018-07-30T06:46:55.292Z,21.60
2018-07-30T06:49:23.434Z,21.60
2018-07-30T06:51:51.656Z,21.70
2018-07-30T06:54:19.813Z,21.80
2018-07-30T06:56:47.991Z,21.80
2018-07-30T06:59:16.742Z,21.90
2018-07-30T07:01:44.910Z,22.00
2018-07-30T07:04:13.057Z,22.10
2018-07-30T07:06:41.229Z,22.20
2018-07-30T07:09:10.250Z,22.20
2018-07-30T07:11:38.745Z,22.30
2018-07-30T07:14:07.314Z,22.40
2018-07-30T07:16:35.700Z,22.40
2018-07-30T07:19:03.845Z,22.50
2018-07-30T07:21:32.226Z,22.60
2018-07-30T07:24:00.602Z,22.70
2018-07-30T07:26:28.762Z,22.80
2018-07-30T07:28:56.957Z,22.90
2018-07-30T07:31:25.129Z,22.90
2018-07-30T07:33:53.314Z,22.90
2018-07-30T07:36:21.462Z,23.10
2018-07-30T07:38:49.630Z,23.20
2018-07-30T07:41:17.795Z,23.30
2018-07-30T07:43:45.958Z,23.40
2018-07-30T07:46:14.125Z,23.50
2018-07-30T07:48:42.281Z,23.60
2018-07-30T07:51:10.551Z,23.70
2018-07-30T07:53:38.653Z,23.80
2018-07-30T07:56:06.810Z,23.90
2018-07-30T07:58:34.974Z,24.00
2018-07-30T08:01:03.129Z,24.10
2018-07-30T08:03:31.294Z,24.30
2018-07-30T08:05:59.467Z,24.30
2018-07-30T08:08:27.643Z,24.50
2018-07-30T08:10:55.857Z,24.60
2018-07-30T08:13:23.993Z,24.70
2018-07-30T08:15:52.208Z,24.80
2018-07-30T08:18:20.410Z,24.90
2018-07-30T08:20:48.572Z,25.00
2018-07-30T08:23:16.750Z,25.00
2018-07-30T08:25:44.911Z,25.10
2018-07-30T08:28:13.060Z,25.20
2018-07-30T08:30:41.225Z,25.20
2018-07-30T08:33:09.408Z,25.30
2018-07-30T08:35:37.542Z,25.50
2018-07-30T08:38:05.714Z,25.50
2018-07-30T08:40:33.878Z,25.60
2018-07-30T08:43:02.058Z,25.70
2018-07-30T08:45:30.223Z,25.80
2018-07-30T08:47:58.368Z,25.90
2018-07-30T08:50:26.533Z,26.00
2018-07-30T08:52:54.710Z,26.20
2018-07-30T08:55:22.866Z,26.40
2018-07-30T08:57:51.021Z,26.40
2018-07-30T09:00:19.181Z,26.50
2018-07-30T09:02:47.337Z,26.70
2018-07-30T09:05:15.490Z,26.80
2018-07-30T09:07:43.627Z,26.80
2018-07-30T09:10:11.798Z,27.00
2018-07-30T09:12:40.061Z,27.10
2018-07-30T09:15:08.122Z,27.20
2018-07-30T09:17:36.302Z,27.30
2018-07-30T09:20:05.114Z,27.40
2018-07-30T09:22:33.293Z,27.50
2018-07-30T09:25:01.461Z,27.70
2018-07-30T09:27:29.613Z,28.00
2018-07-30T09:29:57.794Z,28.10
2018-07-30T09:32:25.947Z,28.20
2018-07-30T09:34:54.090Z,28.30
2018-07-30T09:37:22.259Z,28.30
2018-07-30T09:39:50.763Z,28.40
2018-07-30T09:42:18.921Z,28.50
2018-07-30T09:44:47.103Z,28.40
2018-07-30T09:47:15.221Z,28.30
2018-07-30T09:49:43.368Z,28.30
2018-07-30T09:52:11.490Z,28.40
2018-07-30T09:54:39.629Z,28.40
2018-07-30T09:57:07.789Z,28.50
2018-07-30T09:59:35.962Z,28.70
2018-07-30T10:02:04.121Z,29.00
2018-07-30T10:04:32.287Z,29.20
2018-07-30T10:07:00.437Z,29.30
2018-07-30T10:09:28.605Z,29.50
2018-07-30T10:11:56.982Z,29.60
2018-07-30T10:14:26.179Z,29.80
2018-07-30T10:16:54.977Z,30.00
2018-07-30T10:21:51.118Z,30.10
2018-07-30T10:24:19.257Z,30.10
2018-07-30T10:26:47.414Z,30.10
2018-07-30T10:29:15.566Z,30.10
2018-07-30T10:31:43.708Z,30.20
2018-07-30T10:34:11.843Z,30.20
2018-07-30T10:36:39.983Z,30.10
2018-07-30T10:39:08.599Z,30.30
2018-07-30T10:41:36.735Z,30.30
2018-07-30T10:44:04.929Z,30.50
2018-07-30T10:46:33.064Z,30.30
2018-07-30T10:49:01.239Z,30.20
2018-07-30T10:51:29.369Z,29.90
2018-07-30T10:53:57.507Z,29.90
2018-07-30T10:56:25.729Z,30.00
2018-07-30T10:58:53.866Z,30.00
2018-07-30T11:01:22.014Z,30.20
2018-07-30T11:03:50.138Z,30.60
2018-07-30T11:06:18.284Z,30.90
2018-07-30T11:08:46.431Z,31.10
2018-07-30T11:11:14.572Z,31.40
2018-07-30T11:13:42.781Z,31.60
2018-07-30T11:16:10.954Z,31.80
2018-07-30T11:18:39.084Z,31.70
2018-07-30T11:21:07.338Z,31.70
2018-07-30T11:23:35.599Z,31.80
2018-07-30T11:26:03.686Z,31.90
2018-07-30T11:28:31.842Z,32.00
2018-07-30T11:31:00.015Z,32.00
2018-07-30T11:33:28.156Z,32.10
2018-07-30T11:35:56.298Z,31.90
2018-07-30T11:38:24.443Z,31.80
2018-07-30T11:40:52.600Z,31.90
2018-07-30T11:43:20.742Z,31.90
2018-07-30T11:45:48.886Z,31.80
2018-07-30T11:48:17.174Z,31.90
2018-07-30T11:50:45.294Z,32.10
2018-07-30T11:53:14.470Z,32.00
2018-07-30T11:55:42.606Z,32.10
2018-07-30T11:58:10.749Z,32.20
2018-07-30T12:00:38.894Z,32.30
2018-07-30T12:03:07.052Z,32.50
2018-07-30T12:05:35.188Z,32.50
2018-07-30T12:08:03.335Z,32.50
2018-07-30T12:10:31.470Z,32.40
2018-07-30T12:12:59.618Z,32.40
2018-07-30T12:15:27.759Z,32.30
2018-07-30T12:17:55.914Z,32.40
2018-07-30T12:20:24.062Z,32.20
2018-07-30T12:22:52.214Z,32.20
2018-07-30T12:25:20.374Z,32.20
2018-07-30T12:27:48.530Z,32.20
2018-07-30T12:30:16.740Z,32.20
2018-07-30T12:32:44.853Z,32.00
2018-07-30T12:35:12.988Z,31.90
2018-07-30T12:37:41.126Z,31.60
2018-07-30T12:40:09.302Z,31.70
2018-07-30T12:42:37.759Z,31.90
2018-07-30T12:45:06.023Z,32.10
2018-07-30T12:47:34.176Z,32.10
2018-07-30T12:50:02.318Z,32.10
2018-07-30T12:52:30.476Z,32.20
2018-07-30T12:54:59.338Z,32.20
2018-07-30T12:57:27.482Z,32.10
2018-07-30T12:59:55.634Z,32.20
2018-07-30T13:02:23.790Z,32.20
2018-07-30T13:04:51.954Z,32.30
2018-07-30T13:07:20.095Z,32.10
2018-07-30T13:09:48.246Z,31.90
2018-07-30T13:12:16.409Z,31.70
2018-07-30T13:14:44.565Z,31.40
2018-07-30T13:17:12.709Z,31.30
2018-07-30T13:19:40.914Z,31.40
2018-07-30T13:22:09.049Z,31.30
2018-07-30T13:24:37.198Z,31.40
2018-07-30T13:27:05.370Z,31.60
2018-07-30T13:29:33.586Z,31.80
2018-07-30T13:32:01.781Z,31.90
2018-07-30T13:34:29.957Z,31.90
2018-07-30T13:36:58.105Z,31.90
2018-07-30T13:39:26.237Z,31.90
2018-07-30T13:41:54.390Z,31.90
2018-07-30T13:44:22.551Z,31.70
2018-07-30T13:46:50.684Z,31.70
2018-07-30T13:49:18.826Z,31.90
2018-07-30T13:51:46.986Z,31.90
2018-07-30T13:54:15.207Z,31.80
2018-07-30T13:56:43.305Z,31.70
2018-07-30T13:59:11.458Z,31.30
2018-07-30T14:01:39.606Z,30.90
2018-07-30T14:04:07.749Z,30.70
2018-07-30T14:06:35.902Z,30.80
2018-07-30T14:09:06.362Z,30.90
2018-07-30T14:11:34.505Z,31.10
2018-07-30T14:14:02.641Z,31.20
2018-07-30T14:16:30.786Z,31.50
2018-07-30T14:18:58.925Z,31.60
2018-07-30T14:21:27.070Z,31.60
2018-07-30T14:23:55.222Z,31.60
2018-07-30T14:26:23.361Z,31.60
2018-07-30T14:28:51.535Z,31.70
2018-07-30T14:31:19.667Z,31.80
2018-07-30T14:33:47.797Z,32.00
2018-07-30T14:36:16.306Z,32.10
2018-07-30T14:38:44.457Z,32.20
2018-07-30T14:41:12.637Z,32.10
2018-07-30T14:43:40.790Z,32.10
2018-07-30T14:46:08.938Z,31.90
2018-07-30T14:48:37.071Z,31.90
2018-07-30T14:51:05.237Z,31.90
2018-07-30T14:53:33.383Z,32.20
2018-07-30T14:56:01.558Z,32.20
2018-07-30T14:58:29.937Z,32.30
2018-07-30T15:00:58.157Z,32.30
2018-07-30T15:03:26.525Z,32.20
2018-07-30T15:05:54.747Z,32.20
2018-07-30T15:08:22.874Z,32.20
2018-07-30T15:10:51.026Z,32.10
2018-07-30T15:13:19.246Z,32.10
2018-07-30T15:15:47.410Z,32.20
2018-07-30T15:18:15.578Z,32.10
2018-07-30T15:20:43.786Z,32.00
2018-07-30T15:23:11.974Z,31.90
2018-07-30T15:25:40.167Z,31.90
2018-07-30T15:28:08.331Z,31.90
2018-07-30T15:30:37.317Z,31.90
2018-07-30T15:33:05.556Z,32.00
2018-07-30T15:35:33.753Z,32.00
2018-07-30T15:38:01.938Z,32.00
2018-07-30T15:40:30.144Z,32.00
2018-07-30T15:42:58.238Z,32.00
2018-07-30T15:45:26.383Z,32.00
2018-07-30T15:47:54.689Z,32.00
2018-07-30T15:50:22.897Z,32.00
2018-07-30T15:52:51.137Z,32.20
2018-07-30T15:55:19.301Z,32.20
2018-07-30T15:57:47.811Z,32.40
2018-07-30T16:00:15.984Z,32.50
2018-07-30T16:02:44.451Z,32.50
2018-07-30T16:05:15.475Z,32.60
2018-07-30T16:07:44.293Z,32.70
2018-07-30T16:10:12.578Z,32.70
2018-07-30T16:12:40.776Z,32.70
2018-07-30T16:15:09.623Z,32.70
2018-07-30T16:17:38.018Z,32.70
2018-07-30T16:20:06.686Z,32.70
2018-07-30T16:25:02.934Z,32.80
2018-07-30T16:27:31.165Z,32.90
2018-07-30T16:29:59.418Z,33.00
2018-07-30T16:32:27.570Z,33.00
2018-07-30T16:34:55.750Z,33.00
2018-07-30T16:37:23.893Z,33.10
2018-07-30T16:39:52.050Z,33.00
2018-07-30T16:42:20.241Z,33.00
2018-07-30T16:44:48.408Z,32.90
2018-07-30T16:47:16.570Z,32.70
2018-07-30T16:49:44.714Z,32.60
2018-07-30T16:52:12.895Z,32.50
2018-07-30T16:54:41.078Z,32.40
2018-07-30T16:57:09.400Z,32.30
2018-07-30T16:59:37.490Z,32.20
2018-07-30T17:02:05.714Z,32.10
2018-07-30T17:04:33.874Z,32.20
2018-07-30T17:07:02.033Z,32.20
2018-07-30T17:09:30.200Z,32.20
2018-07-30T17:11:58.362Z,32.10
2018-07-30T17:14:33.231Z,32.10
2018-07-30T17:17:01.402Z,32.00
2018-07-30T17:19:29.731Z,31.90
2018-07-30T17:21:57.898Z,31.80
2018-07-30T17:24:26.107Z,31.80
2018-07-30T17:26:54.317Z,31.70
2018-07-30T17:29:22.485Z,31.60
2018-07-30T17:31:50.641Z,31.20
2018-07-30T17:34:18.819Z,30.90
2018-07-30T17:36:46.990Z,30.90
2018-07-30T17:39:15.181Z,30.90
2018-07-30T17:41:43.354Z,30.60
2018-07-30T17:44:11.601Z,30.20
2018-07-30T17:46:39.773Z,29.90
2018-07-30T17:49:07.933Z,29.60
2018-07-30T17:51:36.087Z,29.40
2018-07-30T17:54:04.270Z,29.30
2018-07-30T17:56:32.538Z,29.10
2018-07-30T18:01:28.677Z,28.90
2018-07-30T18:03:56.837Z,28.80
2018-07-30T18:06:24.978Z,28.70
2018-07-30T18:08:53.117Z,28.60
2018-07-30T18:11:21.269Z,28.60
2018-07-30T18:13:49.410Z,28.40
2018-07-30T18:16:17.561Z,28.30
2018-07-30T18:18:45.765Z,28.30
2018-07-30T18:21:13.906Z,28.20
2018-07-30T18:23:42.063Z,28.30
2018-07-30T18:26:10.189Z,28.30
2018-07-30T18:28:38.330Z,28.30
2018-07-30T18:31:06.747Z,28.30
2018-07-30T18:33:34.947Z,28.40
2018-07-30T18:36:03.078Z,28.30
2018-07-30T18:38:31.233Z,28.30
2018-07-30T18:40:59.377Z,28.30
2018-07-30T18:43:27.550Z,28.30
2018-07-30T18:45:55.718Z,28.30
2018-07-30T18:48:23.870Z,28.30
2018-07-30T18:50:52.078Z,28.30
2018-07-30T18:53:20.242Z,28.30
2018-07-30T18:55:48.506Z,28.20
2018-07-30T18:58:16.673Z,28.20
2018-07-30T19:00:44.834Z,28.10
2018-07-30T19:03:13.046Z,26.90
2018-07-30T19:05:41.213Z,27.80
2018-07-30T19:08:09.366Z,27.80
2018-07-30T19:10:37.560Z,27.70
2018-07-30T19:13:05.678Z,27.60
2018-07-30T19:15:33.850Z,27.60
2018-07-30T19:18:02.028Z,27.50
2018-07-30T19:20:30.206Z,27.40
2018-07-30T19:22:58.346Z,27.40
2018-07-30T19:25:26.498Z,27.30
2018-07-30T19:27:54.719Z,27.30
2018-07-30T19:30:22.880Z,27.20
2018-07-30T19:32:52.091Z,27.10
2018-07-30T19:35:20.266Z,27.00
2018-07-30T19:37:48.430Z,27.00
2018-07-30T19:40:16.592Z,26.90
2018-07-30T19:42:44.757Z,26.80
2018-07-30T19:45:12.935Z,26.80
2018-07-30T19:47:41.087Z,26.80
2018-07-30T19:50:09.238Z,26.70
2018-07-30T19:52:37.461Z,26.60
2018-07-30T19:55:05.934Z,26.50
2018-07-30T19:57:34.123Z,26.40
2018-07-30T20:00:02.281Z,26.30
2018-07-30T20:04:58.474Z,26.10
2018-07-30T20:07:26.670Z,26.00
2018-07-30T20:09:54.857Z,25.90
2018-07-30T20:12:23.029Z,25.50
2018-07-30T20:14:51.214Z,25.40
2018-07-30T20:17:19.380Z,25.30
2018-07-30T20:19:47.538Z,24.90
2018-07-30T20:22:15.707Z,24.80
2018-07-30T20:24:43.867Z,24.70
2018-07-30T20:27:12.026Z,24.60
2018-07-30T20:29:40.178Z,24.40
2018-07-30T20:32:08.318Z,24.10
2018-07-30T20:34:36.489Z,23.90
2018-07-30T20:37:04.701Z,23.60
2018-07-30T20:39:32.826Z,23.50
2018-07-30T20:42:01.013Z,23.40
2018-07-30T20:44:29.234Z,23.30
2018-07-30T20:46:57.378Z,23.30
2018-07-30T20:49:25.538Z,23.20
2018-07-30T20:51:53.681Z,23.20
2018-07-30T20:54:21.826Z,23.20
2018-07-30T20:56:49.969Z,23.20
2018-07-30T20:59:18.125Z,23.20
2018-07-30T21:01:46.295Z,23.00
2018-07-30T21:04:14.445Z,22.70
2018-07-30T21:06:42.862Z,22.70
2018-07-30T21:09:11.245Z,22.60
2018-07-30T21:11:39.718Z,22.40
2018-07-30T21:14:07.890Z,22.40
2018-07-30T21:16:36.033Z,22.40
2018-07-30T21:19:04.251Z,22.40
2018-07-30T21:21:32.398Z,22.40
2018-07-30T21:24:00.594Z,22.40
2018-07-30T21:26:28.742Z,22.30
2018-07-30T21:28:56.931Z,22.30
2018-07-30T21:31:25.090Z,22.30
2018-07-30T21:33:53.254Z,22.30
2018-07-30T21:36:21.422Z,22.30
2018-07-30T21:38:49.578Z,22.30
2018-07-30T21:41:17.745Z,22.20
2018-07-30T21:43:45.923Z,22.10
2018-07-30T21:46:14.065Z,22.00
2018-07-30T21:48:42.210Z,22.00
2018-07-30T21:51:10.345Z,21.90
2018-07-30T21:53:38.517Z,22.00
2018-07-30T21:56:06.894Z,22.00
2018-07-30T21:58:35.031Z,22.00
2018-07-30T22:01:03.183Z,21.90
2018-07-30T22:03:31.340Z,21.80
2018-07-30T22:06:00.681Z,21.70
2018-07-30T22:08:29.262Z,21.60
2018-07-30T22:10:57.404Z,21.50
2018-07-30T22:13:25.590Z,21.40
2018-07-30T22:15:53.740Z,21.30
2018-07-30T22:18:21.899Z,21.40
2018-07-30T22:20:50.031Z,21.40
2018-07-30T22:23:18.180Z,21.40
2018-07-30T22:25:46.330Z,21.40
2018-07-30T22:28:14.494Z,21.30
2018-07-30T22:30:42.640Z,21.30
2018-07-30T22:33:10.786Z,21.30
2018-07-30T22:35:38.950Z,21.10
2018-07-30T22:38:07.115Z,21.00
2018-07-30T22:40:35.263Z,20.90
2018-07-30T22:43:03.461Z,20.80
2018-07-30T22:45:31.611Z,20.70
2018-07-30T22:47:59.745Z,20.60
2018-07-30T22:50:27.894Z,20.60
2018-07-30T22:52:56.067Z,20.60
2018-07-30T22:55:24.237Z,20.60
2018-07-30T22:57:52.393Z,20.50
2018-07-30T23:00:20.555Z,20.40
2018-07-30T23:02:48.693Z,20.40
2018-07-30T23:05:16.833Z,20.30
2018-07-30T23:07:45.128Z,20.20
2018-07-30T23:10:13.293Z,20.10
2018-07-30T23:12:41.569Z,20.10
2018-07-30T23:15:10.086Z,20.10
2018-07-30T23:17:38.229Z,20.00
2018-07-30T23:20:06.406Z,19.90
2018-07-30T23:22:34.561Z,19.80
2018-07-30T23:25:02.714Z,19.80
2018-07-30T23:27:30.846Z,19.90
2018-07-30T23:29:58.994Z,19.90
2018-07-30T23:32:27.141Z,19.90
2018-07-30T23:34:55.309Z,19.80
2018-07-30T23:37:23.748Z,19.80
2018-07-30T23:39:51.762Z,19.70
2018-07-30T23:42:19.933Z,19.70
2018-07-30T23:44:48.067Z,19.80
2018-07-30T23:47:16.225Z,19.90
2018-07-30T23:52:12.343Z,20.00
2018-07-30T23:54:40.502Z,20.10
2018-07-30T23:57:08.655Z,20.10
2018-07-30T23:59:36.790Z,20.10
